sensor_id;sensor_type;location;lat;lon;timestamp;P1;durP1;ratioP1;P2;durP2;ratioP2
4391;SDS011;2210;51.938;8.488;2023-08-17T00:03:14;3.73;;;1.57;;
4391;SDS011;2210;51.938;8.488;2023-08-17T00:07:17;3.43;;;1.70;;
4391;SDS011;2210;51.938;8.488;2023-08-17T00:11:20;1.67;;;1.53;;
4391;SDS011;2210;51.938;8.488;2023-08-17T00:15:21;2.30;;;1.63;;
4391;SDS011;2210;51.938;8.488;2023-08-17T00:19:21;2.80;;;1.60;;
4391;SDS011;2210;51.938;8.488;2023-08-17T00:23:22;5.80;;;2.60;;
4391;SDS011;2210;51.938;8.488;2023-08-17T00:27:22;2.53;;;1.87;;
4391;SDS011;2210;51.938;8.488;2023-08-17T00:31:23;10.60;;;1.90;;
4391;SDS011;2210;51.938;8.488;2023-08-17T00:35:23;3.07;;;1.47;;
4391;SDS011;2210;51.938;8.488;2023-08-17T00:39:36;3.30;;;2.07;;
4391;SDS011;2210;51.938;8.488;2023-08-17T00:43:42;5.70;;;1.70;;
4391;SDS011;2210;51.938;8.488;2023-08-17T00:47:43;2.77;;;1.53;;
4391;SDS011;2210;51.938;8.488;2023-08-17T00:51:43;3.30;;;1.90;;
4391;SDS011;2210;51.938;8.488;2023-08-17T00:55:43;2.17;;;1.50;;
4391;SDS011;2210;51.938;8.488;2023-08-17T00:59:47;1.83;;;1.63;;
4391;SDS011;2210;51.938;8.488;2023-08-17T01:03:48;3.50;;;1.80;;
4391;SDS011;2210;51.938;8.488;2023-08-17T01:07:48;2.90;;;1.83;;
4391;SDS011;2210;51.938;8.488;2023-08-17T01:11:53;6.00;;;1.83;;
4391;SDS011;2210;51.938;8.488;2023-08-17T01:16:01;9.93;;;2.20;;
4391;SDS011;2210;51.938;8.488;2023-08-17T01:20:04;8.13;;;2.27;;
4391;SDS011;2210;51.938;8.488;2023-08-17T01:24:13;4.80;;;2.60;;
4391;SDS011;2210;51.938;8.488;2023-08-17T01:28:17;7.67;;;2.00;;
4391;SDS011;2210;51.938;8.488;2023-08-17T01:36:45;3.10;;;2.30;;
4391;SDS011;2210;51.938;8.488;2023-08-17T01:41:00;8.37;;;2.57;;
4391;SDS011;2210;51.938;8.488;2023-08-17T01:45:05;3.60;;;2.17;;
4391;SDS011;2210;51.938;8.488;2023-08-17T01:49:06;4.83;;;2.30;;
4391;SDS011;2210;51.938;8.488;2023-08-17T01:53:06;6.30;;;2.20;;
4391;SDS011;2210;51.938;8.488;2023-08-17T01:57:09;6.57;;;2.40;;
4391;SDS011;2210;51.938;8.488;2023-08-17T02:01:10;5.70;;;2.67;;
4391;SDS011;2210;51.938;8.488;2023-08-17T02:05:10;4.17;;;2.17;;
4391;SDS011;2210;51.938;8.488;2023-08-17T02:09:16;3.17;;;1.73;;
4391;SDS011;2210;51.938;8.488;2023-08-17T02:13:17;6.20;;;2.67;;
4391;SDS011;2210;51.938;8.488;2023-08-17T02:17:18;4.17;;;2.13;;
4391;SDS011;2210;51.938;8.488;2023-08-17T02:21:19;2.80;;;2.40;;
4391;SDS011;2210;51.938;8.488;2023-08-17T02:25:19;4.23;;;2.97;;
4391;SDS011;2210;51.938;8.488;2023-08-17T02:29:19;2.23;;;2.10;;
4391;SDS011;2210;51.938;8.488;2023-08-17T02:33:20;3.83;;;2.30;;
4391;SDS011;2210;51.938;8.488;2023-08-17T02:37:20;3.70;;;2.13;;
4391;SDS011;2210;51.938;8.488;2023-08-17T02:41:20;3.53;;;2.50;;
4391;SDS011;2210;51.938;8.488;2023-08-17T02:45:21;10.00;;;2.63;;
4391;SDS011;2210;51.938;8.488;2023-08-17T02:49:21;3.40;;;2.70;;
4391;SDS011;2210;51.938;8.488;2023-08-17T02:53:21;7.00;;;2.70;;
4391;SDS011;2210;51.938;8.488;2023-08-17T02:57:21;5.65;;;2.25;;
4391;SDS011;2210;51.938;8.488;2023-08-17T03:01:22;3.00;;;2.73;;
4391;SDS011;2210;51.938;8.488;2023-08-17T03:05:22;5.00;;;2.40;;
4391;SDS011;2210;51.938;8.488;2023-08-17T03:09:22;2.97;;;2.47;;
4391;SDS011;2210;51.938;8.488;2023-08-17T03:13:22;3.23;;;2.60;;
4391;SDS011;2210;51.938;8.488;2023-08-17T03:17:23;2.40;;;2.20;;
4391;SDS011;2210;51.938;8.488;2023-08-17T03:21:26;5.63;;;2.58;;
4391;SDS011;2210;51.938;8.488;2023-08-17T03:25:26;3.20;;;2.30;;
4391;SDS011;2210;51.938;8.488;2023-08-17T03:29:33;3.83;;;2.67;;
4391;SDS011;2210;51.938;8.488;2023-08-17T03:33:33;2.63;;;2.43;;
4391;SDS011;2210;51.938;8.488;2023-08-17T03:37:37;6.87;;;2.83;;
4391;SDS011;2210;51.938;8.488;2023-08-17T03:41:41;5.20;;;2.73;;
4391;SDS011;2210;51.938;8.488;2023-08-17T03:45:41;6.67;;;3.13;;
4391;SDS011;2210;51.938;8.488;2023-08-17T03:49:48;2.73;;;2.53;;
4391;SDS011;2210;51.938;8.488;2023-08-17T03:53:57;14.70;;;3.10;;
4391;SDS011;2210;51.938;8.488;2023-08-17T03:57:58;3.00;;;2.57;;
4391;SDS011;2210;51.938;8.488;2023-08-17T04:01:58;3.80;;;3.37;;
4391;SDS011;2210;51.938;8.488;2023-08-17T04:06:03;3.43;;;2.73;;
4391;SDS011;2210;51.938;8.488;2023-08-17T04:10:16;3.20;;;2.47;;
4391;SDS011;2210;51.938;8.488;2023-08-17T04:14:16;3.47;;;3.17;;
4391;SDS011;2210;51.938;8.488;2023-08-17T04:18:17;3.30;;;2.60;;
4391;SDS011;2210;51.938;8.488;2023-08-17T04:22:20;4.87;;;2.77;;
4391;SDS011;2210;51.938;8.488;2023-08-17T04:26:20;3.47;;;3.00;;
4391;SDS011;2210;51.938;8.488;2023-08-17T04:30:20;4.50;;;2.70;;
4391;SDS011;2210;51.938;8.488;2023-08-17T04:34:21;3.20;;;2.90;;
4391;SDS011;2210;51.938;8.488;2023-08-17T04:38:21;11.40;;;3.17;;
4391;SDS011;2210;51.938;8.488;2023-08-17T04:42:22;10.20;;;3.13;;
4391;SDS011;2210;51.938;8.488;2023-08-17T04:46:22;3.60;;;2.93;;
4391;SDS011;2210;51.938;8.488;2023-08-17T04:50:22;4.50;;;2.70;;
4391;SDS011;2210;51.938;8.488;2023-08-17T04:54:22;3.10;;;2.80;;
4391;SDS011;2210;51.938;8.488;2023-08-17T04:58:23;5.67;;;3.10;;
4391;SDS011;2210;51.938;8.488;2023-08-17T05:02:29;3.30;;;3.00;;
4391;SDS011;2210;51.938;8.488;2023-08-17T05:06:30;5.17;;;2.70;;
4391;SDS011;2210;51.938;8.488;2023-08-17T05:10:37;3.47;;;3.17;;
4391;SDS011;2210;51.938;8.488;2023-08-17T05:38:56;5.10;;;2.83;;
4391;SDS011;2210;51.938;8.488;2023-08-17T05:42:57;10.13;;;3.57;;
4391;SDS011;2210;51.938;8.488;2023-08-17T05:46:57;5.93;;;3.33;;
4391;SDS011;2210;51.938;8.488;2023-08-17T05:51:00;8.07;;;3.33;;
4391;SDS011;2210;51.938;8.488;2023-08-17T05:55:01;5.80;;;3.10;;
4391;SDS011;2210;51.938;8.488;2023-08-17T05:59:01;6.00;;;3.50;;
4391;SDS011;2210;51.938;8.488;2023-08-17T06:03:08;7.93;;;4.13;;
4391;SDS011;2210;51.938;8.488;2023-08-17T06:07:09;5.50;;;3.93;;
4391;SDS011;2210;51.938;8.488;2023-08-17T06:11:09;10.13;;;3.83;;
4391;SDS011;2210;51.938;8.488;2023-08-17T06:15:09;6.97;;;4.10;;
4391;SDS011;2210;51.938;8.488;2023-08-17T06:19:13;9.77;;;4.53;;
4391;SDS011;2210;51.938;8.488;2023-08-17T06:23:13;4.50;;;4.00;;
4391;SDS011;2210;51.938;8.488;2023-08-17T06:27:16;6.73;;;4.20;;
4391;SDS011;2210;51.938;8.488;2023-08-17T06:31:17;4.77;;;3.87;;
4391;SDS011;2210;51.938;8.488;2023-08-17T06:35:17;5.20;;;4.57;;
4391;SDS011;2210;51.938;8.488;2023-08-17T06:39:29;8.00;;;3.87;;
4391;SDS011;2210;51.938;8.488;2023-08-17T06:43:29;7.67;;;4.80;;
4391;SDS011;2210;51.938;8.488;2023-08-17T06:47:30;9.53;;;3.97;;
4391;SDS011;2210;51.938;8.488;2023-08-17T06:51:36;8.80;;;4.27;;
4391;SDS011;2210;51.938;8.488;2023-08-17T06:55:40;6.13;;;4.40;;
4391;SDS011;2210;51.938;8.488;2023-08-17T06:59:40;6.87;;;4.80;;
4391;SDS011;2210;51.938;8.488;2023-08-17T07:03:46;7.10;;;4.30;;
4391;SDS011;2210;51.938;8.488;2023-08-17T07:07:47;8.63;;;5.37;;
4391;SDS011;2210;51.938;8.488;2023-08-17T07:11:48;6.40;;;4.80;;
4391;SDS011;2210;51.938;8.488;2023-08-17T07:15:48;9.57;;;5.93;;
4391;SDS011;2210;51.938;8.488;2023-08-17T07:19:48;8.20;;;5.70;;
4391;SDS011;2210;51.938;8.488;2023-08-17T07:23:50;7.57;;;5.87;;
4391;SDS011;2210;51.938;8.488;2023-08-17T07:27:50;6.63;;;6.00;;
4391;SDS011;2210;51.938;8.488;2023-08-17T07:31:54;8.17;;;6.27;;
4391;SDS011;2210;51.938;8.488;2023-08-17T07:35:54;7.37;;;6.00;;
4391;SDS011;2210;51.938;8.488;2023-08-17T07:39:57;10.87;;;5.50;;
4391;SDS011;2210;51.938;8.488;2023-08-17T07:43:58;11.83;;;5.20;;
4391;SDS011;2210;51.938;8.488;2023-08-17T07:47:58;9.93;;;5.60;;
4391;SDS011;2210;51.938;8.488;2023-08-17T07:51:59;7.87;;;5.50;;
4391;SDS011;2210;51.938;8.488;2023-08-17T07:55:59;6.67;;;4.77;;
4391;SDS011;2210;51.938;8.488;2023-08-17T08:00:08;13.67;;;5.93;;
4391;SDS011;2210;51.938;8.488;2023-08-17T08:04:12;10.73;;;6.30;;
4391;SDS011;2210;51.938;8.488;2023-08-17T08:08:12;9.47;;;5.97;;
4391;SDS011;2210;51.938;8.488;2023-08-17T08:12:14;7.50;;;5.40;;
4391;SDS011;2210;51.938;8.488;2023-08-17T08:16:14;5.40;;;4.90;;
4391;SDS011;2210;51.938;8.488;2023-08-17T08:20:14;7.53;;;5.63;;
4391;SDS011;2210;51.938;8.488;2023-08-17T08:24:18;9.50;;;5.80;;
4391;SDS011;2210;51.938;8.488;2023-08-17T08:28:18;6.67;;;5.07;;
4391;SDS011;2210;51.938;8.488;2023-08-17T08:32:18;10.70;;;5.60;;
4391;SDS011;2210;51.938;8.488;2023-08-17T08:36:19;8.53;;;6.17;;
4391;SDS011;2210;51.938;8.488;2023-08-17T08:40:19;7.73;;;6.17;;
4391;SDS011;2210;51.938;8.488;2023-08-17T08:44:26;8.73;;;6.17;;
4391;SDS011;2210;51.938;8.488;2023-08-17T08:48:35;8.50;;;6.53;;
4391;SDS011;2210;51.938;8.488;2023-08-17T08:57:25;6.67;;;5.67;;
4391;SDS011;2210;51.938;8.488;2023-08-17T09:01:28;8.13;;;5.87;;
4391;SDS011;2210;51.938;8.488;2023-08-17T09:05:38;10.77;;;6.37;;
4391;SDS011;2210;51.938;8.488;2023-08-17T09:09:40;8.07;;;6.83;;
4391;SDS011;2210;51.938;8.488;2023-08-17T09:13:40;7.47;;;5.40;;
4391;SDS011;2210;51.938;8.488;2023-08-17T09:17:47;7.30;;;5.90;;
4391;SDS011;2210;51.938;8.488;2023-08-17T09:21:49;6.80;;;5.57;;
4391;SDS011;2210;51.938;8.488;2023-08-17T09:25:55;10.03;;;6.17;;
4391;SDS011;2210;51.938;8.488;2023-08-17T09:30:08;9.27;;;5.60;;
4391;SDS011;2210;51.938;8.488;2023-08-17T09:34:09;6.97;;;4.67;;
4391;SDS011;2210;51.938;8.488;2023-08-17T09:38:10;8.57;;;5.63;;
4391;SDS011;2210;51.938;8.488;2023-08-17T09:42:10;5.50;;;4.73;;
4391;SDS011;2210;51.938;8.488;2023-08-17T09:46:14;8.73;;;4.87;;
4391;SDS011;2210;51.938;8.488;2023-08-17T09:50:22;6.20;;;4.97;;
4391;SDS011;2210;51.938;8.488;2023-08-17T09:54:25;5.80;;;4.40;;
4391;SDS011;2210;51.938;8.488;2023-08-17T09:58:30;6.37;;;4.70;;
4391;SDS011;2210;51.938;8.488;2023-08-17T10:02:36;6.50;;;5.87;;
4391;SDS011;2210;51.938;8.488;2023-08-17T10:06:43;6.93;;;5.03;;
4391;SDS011;2210;51.938;8.488;2023-08-17T10:10:44;5.40;;;4.70;;
4391;SDS011;2210;51.938;8.488;2023-08-17T10:14:48;10.50;;;5.33;;
4391;SDS011;2210;51.938;8.488;2023-08-17T10:23:26;8.00;;;5.77;;
4391;SDS011;2210;51.938;8.488;2023-08-17T10:27:27;7.37;;;6.20;;
4391;SDS011;2210;51.938;8.488;2023-08-17T10:31:33;8.20;;;6.40;;
4391;SDS011;2210;51.938;8.488;2023-08-17T10:35:34;6.57;;;5.83;;
4391;SDS011;2210;51.938;8.488;2023-08-17T10:39:48;7.97;;;5.97;;
4391;SDS011;2210;51.938;8.488;2023-08-17T10:43:58;6.97;;;5.70;;
4391;SDS011;2210;51.938;8.488;2023-08-17T10:52:09;8.17;;;6.60;;
4391;SDS011;2210;51.938;8.488;2023-08-17T10:56:13;8.63;;;6.00;;
4391;SDS011;2210;51.938;8.488;2023-08-17T11:00:15;7.80;;;6.10;;
4391;SDS011;2210;51.938;8.488;2023-08-17T11:04:20;6.60;;;6.00;;
4391;SDS011;2210;51.938;8.488;2023-08-17T11:08:27;15.30;;;6.80;;
4391;SDS011;2210;51.938;8.488;2023-08-17T11:12:35;11.23;;;6.43;;
4391;SDS011;2210;51.938;8.488;2023-08-17T11:16:35;7.13;;;6.30;;
4391;SDS011;2210;51.938;8.488;2023-08-17T11:20:37;8.37;;;6.27;;
4391;SDS011;2210;51.938;8.488;2023-08-17T11:24:38;10.20;;;5.93;;
4391;SDS011;2210;51.938;8.488;2023-08-17T11:28:40;7.40;;;5.40;;
4391;SDS011;2210;51.938;8.488;2023-08-17T11:32:41;8.60;;;5.60;;
4391;SDS011;2210;51.938;8.488;2023-08-17T11:36:41;8.33;;;5.33;;
4391;SDS011;2210;51.938;8.488;2023-08-17T11:40:41;8.70;;;5.70;;
4391;SDS011;2210;51.938;8.488;2023-08-17T11:44:42;6.37;;;4.60;;
4391;SDS011;2210;51.938;8.488;2023-08-17T11:48:42;5.07;;;4.53;;
4391;SDS011;2210;51.938;8.488;2023-08-17T11:52:43;5.30;;;4.80;;
4391;SDS011;2210;51.938;8.488;2023-08-17T11:56:43;4.70;;;4.30;;
4391;SDS011;2210;51.938;8.488;2023-08-17T12:00:44;8.03;;;4.50;;
4391;SDS011;2210;51.938;8.488;2023-08-17T12:08:57;5.47;;;4.00;;
4391;SDS011;2210;51.938;8.488;2023-08-17T12:13:03;6.33;;;4.00;;
4391;SDS011;2210;51.938;8.488;2023-08-17T12:17:17;4.00;;;3.60;;
4391;SDS011;2210;51.938;8.488;2023-08-17T12:21:24;5.47;;;3.57;;
4391;SDS011;2210;51.938;8.488;2023-08-17T12:25:28;5.03;;;3.70;;
4391;SDS011;2210;51.938;8.488;2023-08-17T12:29:28;4.70;;;3.90;;
4391;SDS011;2210;51.938;8.488;2023-08-17T12:33:29;6.70;;;4.50;;
4391;SDS011;2210;51.938;8.488;2023-08-17T12:37:29;7.03;;;4.60;;
4391;SDS011;2210;51.938;8.488;2023-08-17T12:41:29;4.60;;;4.20;;
4391;SDS011;2210;51.938;8.488;2023-08-17T12:45:30;6.60;;;4.67;;
4391;SDS011;2210;51.938;8.488;2023-08-17T12:49:33;5.90;;;4.00;;
4391;SDS011;2210;51.938;8.488;2023-08-17T12:53:35;9.53;;;4.40;;
4391;SDS011;2210;51.938;8.488;2023-08-17T12:57:35;5.93;;;4.70;;
4391;SDS011;2210;51.938;8.488;2023-08-17T13:01:36;4.97;;;4.53;;
4391;SDS011;2210;51.938;8.488;2023-08-17T13:05:36;5.73;;;5.13;;
4391;SDS011;2210;51.938;8.488;2023-08-17T13:09:36;5.67;;;4.90;;
4391;SDS011;2210;51.938;8.488;2023-08-17T13:13:42;5.77;;;4.80;;
4391;SDS011;2210;51.938;8.488;2023-08-17T13:17:43;6.63;;;4.43;;
4391;SDS011;2210;51.938;8.488;2023-08-17T13:21:44;4.80;;;3.90;;
4391;SDS011;2210;51.938;8.488;2023-08-17T13:26:01;7.07;;;4.10;;
4391;SDS011;2210;51.938;8.488;2023-08-17T13:30:16;4.57;;;4.10;;
4391;SDS011;2210;51.938;8.488;2023-08-17T13:34:17;4.33;;;3.93;;
4391;SDS011;2210;51.938;8.488;2023-08-17T13:38:17;5.10;;;3.97;;
4391;SDS011;2210;51.938;8.488;2023-08-17T13:42:18;4.87;;;4.07;;
4391;SDS011;2210;51.938;8.488;2023-08-17T13:46:21;5.70;;;4.20;;
4391;SDS011;2210;51.938;8.488;2023-08-17T13:50:31;4.70;;;3.70;;
4391;SDS011;2210;51.938;8.488;2023-08-17T13:54:31;4.67;;;3.53;;
4391;SDS011;2210;51.938;8.488;2023-08-17T13:58:35;5.10;;;3.77;;
4391;SDS011;2210;51.938;8.488;2023-08-17T14:02:41;6.33;;;4.13;;
4391;SDS011;2210;51.938;8.488;2023-08-17T14:06:41;3.80;;;3.30;;
4391;SDS011;2210;51.938;8.488;2023-08-17T14:34:22;6.00;;;4.07;;
4391;SDS011;2210;51.938;8.488;2023-08-17T14:38:29;6.03;;;4.20;;
4391;SDS011;2210;51.938;8.488;2023-08-17T15:16:05;6.63;;;3.87;;
4391;SDS011;2210;51.938;8.488;2023-08-17T15:20:16;5.03;;;3.83;;
4391;SDS011;2210;51.938;8.488;2023-08-17T15:24:16;5.97;;;4.20;;
4391;SDS011;2210;51.938;8.488;2023-08-17T15:28:20;8.07;;;4.00;;
4391;SDS011;2210;51.938;8.488;2023-08-17T15:40:46;4.93;;;3.53;;
4391;SDS011;2210;51.938;8.488;2023-08-17T15:44:50;5.17;;;3.67;;
4391;SDS011;2210;51.938;8.488;2023-08-17T15:48:56;4.20;;;3.80;;
4391;SDS011;2210;51.938;8.488;2023-08-17T15:52:59;5.40;;;4.03;;
4391;SDS011;2210;51.938;8.488;2023-08-17T15:56:59;6.90;;;4.20;;
4391;SDS011;2210;51.938;8.488;2023-08-17T16:01:03;8.17;;;3.87;;
4391;SDS011;2210;51.938;8.488;2023-08-17T16:05:09;6.90;;;4.87;;
4391;SDS011;2210;51.938;8.488;2023-08-17T16:09:13;6.73;;;4.13;;
4391;SDS011;2210;51.938;8.488;2023-08-17T16:13:13;8.73;;;4.50;;
4391;SDS011;2210;51.938;8.488;2023-08-17T16:17:13;5.73;;;4.03;;
4391;SDS011;2210;51.938;8.488;2023-08-17T16:21:17;6.43;;;4.40;;
4391;SDS011;2210;51.938;8.488;2023-08-17T16:25:17;4.50;;;3.70;;
4391;SDS011;2210;51.938;8.488;2023-08-17T16:29:27;10.17;;;6.20;;
4391;SDS011;2210;51.938;8.488;2023-08-17T16:33:27;5.93;;;4.30;;
4391;SDS011;2210;51.938;8.488;2023-08-17T16:37:28;7.60;;;4.53;;
4391;SDS011;2210;51.938;8.488;2023-08-17T16:46:00;11.50;;;4.70;;
4391;SDS011;2210;51.938;8.488;2023-08-17T16:50:03;6.03;;;4.13;;
4391;SDS011;2210;51.938;8.488;2023-08-17T16:54:04;7.20;;;4.47;;
4391;SDS011;2210;51.938;8.488;2023-08-17T16:58:05;6.73;;;4.50;;
4391;SDS011;2210;51.938;8.488;2023-08-17T17:02:12;6.37;;;4.20;;
4391;SDS011;2210;51.938;8.488;2023-08-17T17:06:12;4.50;;;3.83;;
4391;SDS011;2210;51.938;8.488;2023-08-17T17:10:15;4.33;;;3.67;;
4391;SDS011;2210;51.938;8.488;2023-08-17T17:14:18;9.17;;;4.60;;
4391;SDS011;2210;51.938;8.488;2023-08-17T17:18:18;8.67;;;4.67;;
4391;SDS011;2210;51.938;8.488;2023-08-17T17:22:19;6.07;;;4.30;;
4391;SDS011;2210;51.938;8.488;2023-08-17T17:26:30;5.30;;;4.20;;
4391;SDS011;2210;51.938;8.488;2023-08-17T17:30:31;6.73;;;5.03;;
4391;SDS011;2210;51.938;8.488;2023-08-17T17:34:35;4.50;;;3.80;;
4391;SDS011;2210;51.938;8.488;2023-08-17T17:38:35;6.20;;;4.33;;
4391;SDS011;2210;51.938;8.488;2023-08-17T17:42:48;6.03;;;3.93;;
4391;SDS011;2210;51.938;8.488;2023-08-17T17:46:48;6.40;;;4.13;;
4391;SDS011;2210;51.938;8.488;2023-08-17T17:50:48;6.50;;;3.93;;
4391;SDS011;2210;51.938;8.488;2023-08-17T17:54:48;5.80;;;3.97;;
4391;SDS011;2210;51.938;8.488;2023-08-17T17:58:49;6.43;;;4.30;;
4391;SDS011;2210;51.938;8.488;2023-08-17T18:02:49;4.60;;;4.00;;
4391;SDS011;2210;51.938;8.488;2023-08-17T18:06:59;4.10;;;3.30;;
4391;SDS011;2210;51.938;8.488;2023-08-17T18:10:59;5.37;;;3.70;;
4391;SDS011;2210;51.938;8.488;2023-08-17T18:14:59;3.63;;;2.97;;
4391;SDS011;2210;51.938;8.488;2023-08-17T18:18:59;5.80;;;3.67;;
4391;SDS011;2210;51.938;8.488;2023-08-17T18:23:00;4.00;;;3.50;;
4391;SDS011;2210;51.938;8.488;2023-08-17T18:27:13;5.83;;;3.60;;
4391;SDS011;2210;51.938;8.488;2023-08-17T18:31:13;6.03;;;4.03;;
4391;SDS011;2210;51.938;8.488;2023-08-17T18:35:20;4.17;;;3.30;;
4391;SDS011;2210;51.938;8.488;2023-08-17T18:39:29;4.17;;;2.80;;
4391;SDS011;2210;51.938;8.488;2023-08-17T18:43:30;4.33;;;3.27;;
4391;SDS011;2210;51.938;8.488;2023-08-17T18:47:33;3.23;;;2.93;;
4391;SDS011;2210;51.938;8.488;2023-08-17T18:51:39;5.30;;;2.93;;
4391;SDS011;2210;51.938;8.488;2023-08-17T18:55:40;3.53;;;3.03;;
4391;SDS011;2210;51.938;8.488;2023-08-17T18:59:40;5.40;;;2.70;;
4391;SDS011;2210;51.938;8.488;2023-08-17T19:03:49;4.40;;;3.60;;
4391;SDS011;2210;51.938;8.488;2023-08-17T19:07:50;6.10;;;3.53;;
4391;SDS011;2210;51.938;8.488;2023-08-17T19:11:53;3.20;;;2.90;;
4391;SDS011;2210;51.938;8.488;2023-08-17T19:15:53;3.33;;;2.43;;
4391;SDS011;2210;51.938;8.488;2023-08-17T19:19:54;3.00;;;2.70;;
4391;SDS011;2210;51.938;8.488;2023-08-17T19:23:57;7.90;;;2.97;;
4391;SDS011;2210;51.938;8.488;2023-08-17T19:27:57;5.97;;;4.47;;
4391;SDS011;2210;51.938;8.488;2023-08-17T19:31:58;4.40;;;3.60;;
4391;SDS011;2210;51.938;8.488;2023-08-17T19:35:58;5.13;;;3.80;;
4391;SDS011;2210;51.938;8.488;2023-08-17T19:40:11;3.93;;;3.20;;
4391;SDS011;2210;51.938;8.488;2023-08-17T19:44:11;4.77;;;3.97;;
4391;SDS011;2210;51.938;8.488;2023-08-17T19:48:11;6.40;;;4.20;;
4391;SDS011;2210;51.938;8.488;2023-08-17T19:52:12;5.60;;;4.40;;
4391;SDS011;2210;51.938;8.488;2023-08-17T19:56:13;5.50;;;4.90;;
4391;SDS011;2210;51.938;8.488;2023-08-17T20:00:16;5.83;;;4.87;;
4391;SDS011;2210;51.938;8.488;2023-08-17T20:04:19;4.30;;;3.90;;
4391;SDS011;2210;51.938;8.488;2023-08-17T20:08:20;7.67;;;4.83;;
4391;SDS011;2210;51.938;8.488;2023-08-17T20:12:23;4.97;;;4.47;;
4391;SDS011;2210;51.938;8.488;2023-08-17T20:16:23;5.93;;;4.70;;
4391;SDS011;2210;51.938;8.488;2023-08-17T20:20:27;6.37;;;4.90;;
4391;SDS011;2210;51.938;8.488;2023-08-17T20:24:31;7.63;;;5.80;;
4391;SDS011;2210;51.938;8.488;2023-08-17T20:28:32;9.97;;;6.70;;
4391;SDS011;2210;51.938;8.488;2023-08-17T20:32:34;5.63;;;4.70;;
4391;SDS011;2210;51.938;8.488;2023-08-17T20:36:34;6.70;;;5.77;;
4391;SDS011;2210;51.938;8.488;2023-08-17T20:40:34;6.33;;;5.73;;
4391;SDS011;2210;51.938;8.488;2023-08-17T20:44:39;11.63;;;6.70;;
4391;SDS011;2210;51.938;8.488;2023-08-17T20:48:39;8.00;;;5.83;;
4391;SDS011;2210;51.938;8.488;2023-08-17T20:52:40;9.07;;;6.80;;
4391;SDS011;2210;51.938;8.488;2023-08-17T20:56:40;8.57;;;6.50;;
4391;SDS011;2210;51.938;8.488;2023-08-17T21:00:46;12.52;;;6.25;;
4391;SDS011;2210;51.938;8.488;2023-08-17T21:04:50;7.63;;;5.77;;
4391;SDS011;2210;51.938;8.488;2023-08-17T21:08:56;11.07;;;7.30;;
4391;SDS011;2210;51.938;8.488;2023-08-17T21:12:57;11.50;;;5.93;;
4391;SDS011;2210;51.938;8.488;2023-08-17T21:16:57;11.70;;;7.43;;
4391;SDS011;2210;51.938;8.488;2023-08-17T21:20:58;11.80;;;7.43;;
4391;SDS011;2210;51.938;8.488;2023-08-17T21:24:59;12.27;;;7.40;;
4391;SDS011;2210;51.938;8.488;2023-08-17T21:28:59;10.63;;;7.47;;
4391;SDS011;2210;51.938;8.488;2023-08-17T21:32:59;10.87;;;7.23;;
4391;SDS011;2210;51.938;8.488;2023-08-17T21:37:05;12.10;;;7.87;;
4391;SDS011;2210;51.938;8.488;2023-08-17T21:41:07;11.37;;;8.37;;
4391;SDS011;2210;51.938;8.488;2023-08-17T21:45:07;16.63;;;9.07;;
4391;SDS011;2210;51.938;8.488;2023-08-17T21:49:08;13.43;;;9.43;;
4391;SDS011;2210;51.938;8.488;2023-08-17T21:53:08;15.60;;;9.60;;
4391;SDS011;2210;51.938;8.488;2023-08-17T21:57:12;14.07;;;8.53;;
4391;SDS011;2210;51.938;8.488;2023-08-17T22:01:12;15.70;;;9.87;;
4391;SDS011;2210;51.938;8.488;2023-08-17T22:05:12;11.83;;;8.50;;
4391;SDS011;2210;51.938;8.488;2023-08-17T22:09:12;13.27;;;8.50;;
4391;SDS011;2210;51.938;8.488;2023-08-17T22:13:13;11.87;;;8.43;;
4391;SDS011;2210;51.938;8.488;2023-08-17T22:17:13;12.60;;;8.57;;
4391;SDS011;2210;51.938;8.488;2023-08-17T22:25:27;17.93;;;8.40;;
4391;SDS011;2210;51.938;8.488;2023-08-17T22:29:31;13.50;;;8.00;;
4391;SDS011;2210;51.938;8.488;2023-08-17T22:33:41;13.47;;;7.93;;
4391;SDS011;2210;51.938;8.488;2023-08-17T22:37:44;13.13;;;7.47;;
4391;SDS011;2210;51.938;8.488;2023-08-17T22:41:47;11.67;;;6.87;;
4391;SDS011;2210;51.938;8.488;2023-08-17T22:45:48;11.93;;;7.00;;
4391;SDS011;2210;51.938;8.488;2023-08-17T22:49:48;10.07;;;7.17;;
4391;SDS011;2210;51.938;8.488;2023-08-17T22:53:49;10.87;;;6.43;;
4391;SDS011;2210;51.938;8.488;2023-08-17T22:57:49;8.07;;;6.80;;
4391;SDS011;2210;51.938;8.488;2023-08-17T23:01:52;11.60;;;7.03;;
4391;SDS011;2210;51.938;8.488;2023-08-17T23:05:56;10.07;;;6.57;;
4391;SDS011;2210;51.938;8.488;2023-08-17T23:10:15;11.73;;;6.67;;
4391;SDS011;2210;51.938;8.488;2023-08-17T23:14:16;9.40;;;6.10;;
4391;SDS011;2210;51.938;8.488;2023-08-17T23:18:22;10.70;;;6.17;;
4391;SDS011;2210;51.938;8.488;2023-08-17T23:22:22;14.03;;;5.70;;
4391;SDS011;2210;51.938;8.488;2023-08-17T23:26:29;7.40;;;5.22;;
4391;SDS011;2210;51.938;8.488;2023-08-17T23:30:30;8.77;;;5.70;;
4391;SDS011;2210;51.938;8.488;2023-08-17T23:34:30;6.97;;;5.10;;
4391;SDS011;2210;51.938;8.488;2023-08-17T23:38:33;7.03;;;5.43;;
4391;SDS011;2210;51.938;8.488;2023-08-17T23:42:34;6.00;;;4.13;;
4391;SDS011;2210;51.938;8.488;2023-08-17T23:46:34;7.67;;;4.93;;
4391;SDS011;2210;51.938;8.488;2023-08-17T23:50:37;6.90;;;4.00;;
4391;SDS011;2210;51.938;8.488;2023-08-17T23:54:38;8.33;;;5.20;;
4391;SDS011;2210;51.938;8.488;2023-08-17T23:58:38;8.30;;;4.43;;
